North Middletown, Kentucky
Current Conditions -  °F | °C
As of 8:15 PM on Sunday 23 Nov 2014 (Local Time) from KIOB Reporting Station
Broken Clouds Broken Clouds  
Wind Chill: 55°   Ceiling: 9500
Heat Index: 55°   Visibility: 10mi
Dew Point: 54°   Wind: 15mph
Humidity: 94%   Direction: 150°SSE
Pressure: 29.44"   Gusts: 24mph
Location:  38.15°N, 84.11°W
Report Text: KIOB 240115Z AUTO 15013G21KT 10SM BKN095 BKN120 13/12 A2944 RMK AO2
Loading
Personal Weather Stations






























Interactive Weather Map New forecast layout! Learn more

10-Day Weather Forecast

Advertisements
Track Severe Weather on mobile